sensor_id;sensor_type;location;lat;lon;timestamp;pressure;altitude;pressure_sealevel;temperature
65316;BMP280;51920;53.952;10.292;2023-01-10T00:00:23;100122.25;;;6.33
65316;BMP280;51920;53.952;10.292;2023-01-10T00:02:49;100140.03;;;6.41
65316;BMP280;51920;53.952;10.292;2023-01-10T00:05:15;100147.47;;;6.48
65316;BMP280;51920;53.952;10.292;2023-01-10T00:07:41;100141.53;;;6.39
65316;BMP280;51920;53.952;10.292;2023-01-10T00:10:07;100152.28;;;6.39
65316;BMP280;51920;53.952;10.292;2023-01-10T00:12:32;100157.31;;;6.40
65316;BMP280;51920;53.952;10.292;2023-01-10T00:15:16;100161.97;;;6.43
65316;BMP280;51920;53.952;10.292;2023-01-10T00:17:42;100163.47;;;6.41
65316;BMP280;51920;53.952;10.292;2023-01-10T00:20:07;100157.72;;;6.42
65316;BMP280;51920;53.952;10.292;2023-01-10T00:22:33;100170.75;;;6.40
65316;BMP280;51920;53.952;10.292;2023-01-10T00:24:58;100175.00;;;6.41
65316;BMP280;51920;53.952;10.292;2023-01-10T00:27:24;100178.47;;;6.42
65316;BMP280;51920;53.952;10.292;2023-01-10T00:29:49;100180.75;;;6.40
65316;BMP280;51920;53.952;10.292;2023-01-10T00:32:17;100186.19;;;6.43
65316;BMP280;51920;53.952;10.292;2023-01-10T00:34:42;100188.53;;;6.45
65316;BMP280;51920;53.952;10.292;2023-01-10T00:37:07;100192.28;;;6.40
65316;BMP280;51920;53.952;10.292;2023-01-10T00:39:33;100193.84;;;6.41
65316;BMP280;51920;53.952;10.292;2023-01-10T00:41:58;100200.00;;;6.42
65316;BMP280;51920;53.952;10.292;2023-01-10T00:44:42;100204.31;;;6.46
65316;BMP280;51920;53.952;10.292;2023-01-10T00:47:10;100214.66;;;6.44
65316;BMP280;51920;53.952;10.292;2023-01-10T00:49:37;100209.69;;;6.46
65316;BMP280;51920;53.952;10.292;2023-01-10T00:52:02;100206.94;;;6.43
65316;BMP280;51920;53.952;10.292;2023-01-10T00:54:28;100208.72;;;6.35
65316;BMP280;51920;53.952;10.292;2023-01-10T00:56:53;100211.53;;;6.42
65316;BMP280;51920;53.952;10.292;2023-01-10T00:59:19;100226.53;;;6.43
65316;BMP280;51920;53.952;10.292;2023-01-10T01:01:44;100237.31;;;6.43
65316;BMP280;51920;53.952;10.292;2023-01-10T01:04:10;100236.47;;;6.39
65316;BMP280;51920;53.952;10.292;2023-01-10T01:06:35;100236.88;;;6.41
65316;BMP280;51920;53.952;10.292;2023-01-10T01:09:01;100240.00;;;6.43
65316;BMP280;51920;53.952;10.292;2023-01-10T01:11:26;100238.00;;;6.40
65316;BMP280;51920;53.952;10.292;2023-01-10T01:13:51;100249.19;;;6.42
65316;BMP280;51920;53.952;10.292;2023-01-10T01:16:17;100260.38;;;6.44
65316;BMP280;51920;53.952;10.292;2023-01-10T01:18:43;100266.19;;;6.46
65316;BMP280;51920;53.952;10.292;2023-01-10T01:21:08;100266.91;;;6.43
65316;BMP280;51920;53.952;10.292;2023-01-10T01:23:33;100267.03;;;6.51
65316;BMP280;51920;53.952;10.292;2023-01-10T01:25:59;100277.41;;;6.52
65316;BMP280;51920;53.952;10.292;2023-01-10T01:28:25;100290.13;;;6.52
65316;BMP280;51920;53.952;10.292;2023-01-10T01:30:51;100283.03;;;6.43
65316;BMP280;51920;53.952;10.292;2023-01-10T01:33:17;100293.72;;;6.40
65316;BMP280;51920;53.952;10.292;2023-01-10T01:35:44;100297.19;;;6.40
65316;BMP280;51920;53.952;10.292;2023-01-10T01:38:10;100303.84;;;6.46
65316;BMP280;51920;53.952;10.292;2023-01-10T01:40:36;100309.44;;;6.38
65316;BMP280;51920;53.952;10.292;2023-01-10T01:43:20;100315.97;;;6.37
65316;BMP280;51920;53.952;10.292;2023-01-10T01:45:46;100319.47;;;6.37
65316;BMP280;51920;53.952;10.292;2023-01-10T01:51:01;100338.28;;;6.37
65316;BMP280;51920;53.952;10.292;2023-01-10T01:53:40;100343.56;;;6.34
65316;BMP280;51920;53.952;10.292;2023-01-10T01:56:23;100344.38;;;6.34
65316;BMP280;51920;53.952;10.292;2023-01-10T01:59:00;100345.69;;;6.24
65316;BMP280;51920;53.952;10.292;2023-01-10T02:01:27;100358.16;;;6.33
65316;BMP280;51920;53.952;10.292;2023-01-10T02:04:00;100361.06;;;6.24
65316;BMP280;51920;53.952;10.292;2023-01-10T02:06:27;100365.69;;;6.23
65316;BMP280;51920;53.952;10.292;2023-01-10T02:08:58;100364.16;;;6.26
65316;BMP280;51920;53.952;10.292;2023-01-10T02:11:24;100369.06;;;6.20
65316;BMP280;51920;53.952;10.292;2023-01-10T02:13:50;100381.88;;;6.27
65316;BMP280;51920;53.952;10.292;2023-01-10T02:16:17;100381.16;;;6.30
65316;BMP280;51920;53.952;10.292;2023-01-10T02:18:43;100378.84;;;6.29
65316;BMP280;51920;53.952;10.292;2023-01-10T02:24:44;100384.22;;;6.29
65316;BMP280;51920;53.952;10.292;2023-01-10T02:30:28;100404.38;;;6.19
65316;BMP280;51920;53.952;10.292;2023-01-10T02:33:09;100398.16;;;6.15
65316;BMP280;51920;53.952;10.292;2023-01-10T02:38:22;100411.59;;;6.15
65316;BMP280;51920;53.952;10.292;2023-01-10T02:41:15;100406.22;;;6.15
65316;BMP280;51920;53.952;10.292;2023-01-10T02:43:50;100412.78;;;6.17
65316;BMP280;51920;53.952;10.292;2023-01-10T02:46:21;100410.72;;;6.11
65316;BMP280;51920;53.952;10.292;2023-01-10T02:48:53;100408.44;;;6.09
65316;BMP280;51920;53.952;10.292;2023-01-10T02:51:21;100420.78;;;6.14
65316;BMP280;51920;53.952;10.292;2023-01-10T02:53:55;100412.06;;;6.01
65316;BMP280;51920;53.952;10.292;2023-01-10T03:00:15;100432.00;;;6.00
65316;BMP280;51920;53.952;10.292;2023-01-10T03:02:28;100434.78;;;6.03
65316;BMP280;51920;53.952;10.292;2023-01-10T03:05:08;100445.78;;;6.14
65316;BMP280;51920;53.952;10.292;2023-01-10T03:07:42;100454.91;;;6.10
65316;BMP280;51920;53.952;10.292;2023-01-10T03:15:52;100438.03;;;5.93
65316;BMP280;51920;53.952;10.292;2023-01-10T03:18:23;100448.38;;;5.91
65316;BMP280;51920;53.952;10.292;2023-01-10T03:20:50;100442.19;;;5.91
65316;BMP280;51920;53.952;10.292;2023-01-10T03:23:17;100441.84;;;5.92
65316;BMP280;51920;53.952;10.292;2023-01-10T03:25:46;100443.25;;;5.86
65316;BMP280;51920;53.952;10.292;2023-01-10T03:28:15;100455.44;;;5.83
65316;BMP280;51920;53.952;10.292;2023-01-10T03:30:45;100454.53;;;5.76
65316;BMP280;51920;53.952;10.292;2023-01-10T03:33:15;100458.91;;;5.84
65316;BMP280;51920;53.952;10.292;2023-01-10T03:35:55;100479.97;;;5.82
65316;BMP280;51920;53.952;10.292;2023-01-10T03:40:58;100483.66;;;5.74
65316;BMP280;51920;53.952;10.292;2023-01-10T03:46:31;100486.09;;;5.79
65316;BMP280;51920;53.952;10.292;2023-01-10T03:48:58;100483.31;;;5.75
65316;BMP280;51920;53.952;10.292;2023-01-10T03:51:25;100488.78;;;5.79
65316;BMP280;51920;53.952;10.292;2023-01-10T03:53:51;100499.69;;;5.70
65316;BMP280;51920;53.952;10.292;2023-01-10T03:56:17;100492.31;;;5.67
65316;BMP280;51920;53.952;10.292;2023-01-10T03:58:42;100503.41;;;5.65
65316;BMP280;51920;53.952;10.292;2023-01-10T04:01:07;100503.00;;;5.63
65316;BMP280;51920;53.952;10.292;2023-01-10T04:03:33;100512.41;;;5.57
65316;BMP280;51920;53.952;10.292;2023-01-10T04:05:58;100517.88;;;5.45
65316;BMP280;51920;53.952;10.292;2023-01-10T04:08:23;100526.19;;;5.40
65316;BMP280;51920;53.952;10.292;2023-01-10T04:10:49;100531.91;;;5.38
65316;BMP280;51920;53.952;10.292;2023-01-10T04:13:14;100544.34;;;5.31
65316;BMP280;51920;53.952;10.292;2023-01-10T04:15:40;100548.03;;;5.38
65316;BMP280;51920;53.952;10.292;2023-01-10T04:18:05;100547.41;;;5.29
65316;BMP280;51920;53.952;10.292;2023-01-10T04:20:30;100550.34;;;5.24
65316;BMP280;51920;53.952;10.292;2023-01-10T04:22:56;100563.66;;;5.20
65316;BMP280;51920;53.952;10.292;2023-01-10T04:25:22;100571.22;;;5.31
65316;BMP280;51920;53.952;10.292;2023-01-10T04:27:48;100570.38;;;5.14
65316;BMP280;51920;53.952;10.292;2023-01-10T04:30:14;100576.16;;;5.16
65316;BMP280;51920;53.952;10.292;2023-01-10T04:32:40;100582.69;;;5.15
65316;BMP280;51920;53.952;10.292;2023-01-10T04:35:05;100575.13;;;5.05
65316;BMP280;51920;53.952;10.292;2023-01-10T04:37:31;100581.03;;;4.98
65316;BMP280;51920;53.952;10.292;2023-01-10T04:39:56;100592.84;;;4.94
65316;BMP280;51920;53.952;10.292;2023-01-10T04:42:21;100593.72;;;4.98
65316;BMP280;51920;53.952;10.292;2023-01-10T04:44:47;100599.97;;;4.90
65316;BMP280;51920;53.952;10.292;2023-01-10T04:47:13;100591.47;;;4.88
65316;BMP280;51920;53.952;10.292;2023-01-10T04:49:38;100612.28;;;4.91
65316;BMP280;51920;53.952;10.292;2023-01-10T04:52:03;100611.16;;;4.92
65316;BMP280;51920;53.952;10.292;2023-01-10T04:54:29;100616.88;;;4.90
65316;BMP280;51920;53.952;10.292;2023-01-10T04:56:54;100617.00;;;4.94
65316;BMP280;51920;53.952;10.292;2023-01-10T04:59:19;100614.31;;;4.94
65316;BMP280;51920;53.952;10.292;2023-01-10T05:01:45;100608.94;;;4.94
65316;BMP280;51920;53.952;10.292;2023-01-10T05:04:10;100628.25;;;4.99
65316;BMP280;51920;53.952;10.292;2023-01-10T05:06:36;100620.78;;;4.93
65316;BMP280;51920;53.952;10.292;2023-01-10T05:09:04;100633.28;;;5.01
65316;BMP280;51920;53.952;10.292;2023-01-10T05:11:29;100642.03;;;4.98
65316;BMP280;51920;53.952;10.292;2023-01-10T05:13:55;100649.19;;;4.94
65316;BMP280;51920;53.952;10.292;2023-01-10T05:16:20;100644.28;;;4.96
65316;BMP280;51920;53.952;10.292;2023-01-10T05:18:45;100653.19;;;5.00
65316;BMP280;51920;53.952;10.292;2023-01-10T05:21:12;100652.97;;;5.05
65316;BMP280;51920;53.952;10.292;2023-01-10T05:23:38;100654.06;;;5.04
65316;BMP280;51920;53.952;10.292;2023-01-10T05:26:05;100664.38;;;5.14
65316;BMP280;51920;53.952;10.292;2023-01-10T05:28:31;100660.03;;;5.10
65316;BMP280;51920;53.952;10.292;2023-01-10T05:30:56;100668.84;;;5.10
65316;BMP280;51920;53.952;10.292;2023-01-10T05:33:22;100680.81;;;5.13
65316;BMP280;51920;53.952;10.292;2023-01-10T05:35:47;100685.28;;;5.09
65316;BMP280;51920;53.952;10.292;2023-01-10T05:38:12;100691.31;;;5.05
65316;BMP280;51920;53.952;10.292;2023-01-10T05:40:38;100689.44;;;5.06
65316;BMP280;51920;53.952;10.292;2023-01-10T05:43:03;100701.50;;;5.12
65316;BMP280;51920;53.952;10.292;2023-01-10T05:45:28;100698.72;;;5.09
65316;BMP280;51920;53.952;10.292;2023-01-10T05:47:54;100704.41;;;5.07
65316;BMP280;51920;53.952;10.292;2023-01-10T05:50:19;100704.63;;;5.02
65316;BMP280;51920;53.952;10.292;2023-01-10T05:52:45;100698.41;;;4.98
65316;BMP280;51920;53.952;10.292;2023-01-10T05:55:10;100714.03;;;5.08
65316;BMP280;51920;53.952;10.292;2023-01-10T05:57:35;100713.00;;;5.00
65316;BMP280;51920;53.952;10.292;2023-01-10T06:00:02;100720.41;;;5.03
65316;BMP280;51920;53.952;10.292;2023-01-10T06:02:36;100722.31;;;5.03
65316;BMP280;51920;53.952;10.292;2023-01-10T06:05:02;100727.78;;;5.19
65316;BMP280;51920;53.952;10.292;2023-01-10T06:07:27;100733.72;;;5.12
65316;BMP280;51920;53.952;10.292;2023-01-10T06:09:53;100737.72;;;5.18
65316;BMP280;51920;53.952;10.292;2023-01-10T06:12:18;100738.00;;;5.13
65316;BMP280;51920;53.952;10.292;2023-01-10T06:14:44;100748.94;;;5.08
65316;BMP280;51920;53.952;10.292;2023-01-10T06:17:10;100755.75;;;5.05
65316;BMP280;51920;53.952;10.292;2023-01-10T06:19:35;100759.56;;;5.04
65316;BMP280;51920;53.952;10.292;2023-01-10T06:22:01;100763.69;;;5.02
65316;BMP280;51920;53.952;10.292;2023-01-10T06:24:27;100765.91;;;5.00
65316;BMP280;51920;53.952;10.292;2023-01-10T06:26:53;100763.25;;;5.00
65316;BMP280;51920;53.952;10.292;2023-01-10T06:29:18;100766.59;;;4.97
65316;BMP280;51920;53.952;10.292;2023-01-10T06:31:44;100765.50;;;4.98
65316;BMP280;51920;53.952;10.292;2023-01-10T06:34:09;100776.00;;;4.91
65316;BMP280;51920;53.952;10.292;2023-01-10T06:36:34;100779.78;;;4.90
65316;BMP280;51920;53.952;10.292;2023-01-10T06:39:00;100784.50;;;4.93
65316;BMP280;51920;53.952;10.292;2023-01-10T06:41:26;100788.84;;;4.85
65316;BMP280;51920;53.952;10.292;2023-01-10T06:43:51;100779.47;;;4.79
65316;BMP280;51920;53.952;10.292;2023-01-10T06:46:17;100793.88;;;4.74
65316;BMP280;51920;53.952;10.292;2023-01-10T06:48:44;100800.16;;;4.78
65316;BMP280;51920;53.952;10.292;2023-01-10T06:51:11;100794.47;;;5.04
65316;BMP280;51920;53.952;10.292;2023-01-10T06:53:36;100798.56;;;4.90
65316;BMP280;51920;53.952;10.292;2023-01-10T06:56:02;100804.75;;;4.90
65316;BMP280;51920;53.952;10.292;2023-01-10T06:58:28;100800.69;;;4.72
65316;BMP280;51920;53.952;10.292;2023-01-10T07:00:53;100809.97;;;4.74
65316;BMP280;51920;53.952;10.292;2023-01-10T07:03:19;100817.09;;;4.70
65316;BMP280;51920;53.952;10.292;2023-01-10T07:05:44;100811.06;;;4.61
65316;BMP280;51920;53.952;10.292;2023-01-10T07:08:09;100820.66;;;4.62
65316;BMP280;51920;53.952;10.292;2023-01-10T07:10:35;100820.25;;;4.60
65316;BMP280;51920;53.952;10.292;2023-01-10T07:13:00;100830.25;;;4.63
65316;BMP280;51920;53.952;10.292;2023-01-10T07:15:26;100834.19;;;4.65
65316;BMP280;51920;53.952;10.292;2023-01-10T07:17:53;100841.72;;;4.60
65316;BMP280;51920;53.952;10.292;2023-01-10T07:20:20;100843.25;;;4.61
65316;BMP280;51920;53.952;10.292;2023-01-10T07:22:52;100853.31;;;4.64
65316;BMP280;51920;53.952;10.292;2023-01-10T07:25:18;100848.94;;;4.59
65316;BMP280;51920;53.952;10.292;2023-01-10T07:27:44;100852.44;;;4.60
65316;BMP280;51920;53.952;10.292;2023-01-10T07:30:09;100851.72;;;4.63
65316;BMP280;51920;53.952;10.292;2023-01-10T07:32:35;100851.31;;;4.61
65316;BMP280;51920;53.952;10.292;2023-01-10T07:35:00;100859.34;;;4.61
65316;BMP280;51920;53.952;10.292;2023-01-10T07:37:26;100853.09;;;4.57
65316;BMP280;51920;53.952;10.292;2023-01-10T07:39:51;100862.56;;;4.54
65316;BMP280;51920;53.952;10.292;2023-01-10T07:42:16;100855.06;;;4.47
65316;BMP280;51920;53.952;10.292;2023-01-10T07:44:42;100862.41;;;4.51
65316;BMP280;51920;53.952;10.292;2023-01-10T07:47:07;100865.19;;;4.42
65316;BMP280;51920;53.952;10.292;2023-01-10T07:49:32;100866.09;;;4.46
65316;BMP280;51920;53.952;10.292;2023-01-10T07:51:58;100864.84;;;4.43
65316;BMP280;51920;53.952;10.292;2023-01-10T07:54:23;100865.66;;;4.44
65316;BMP280;51920;53.952;10.292;2023-01-10T07:56:48;100873.34;;;4.45
65316;BMP280;51920;53.952;10.292;2023-01-10T07:59:14;100874.00;;;4.42
65316;BMP280;51920;53.952;10.292;2023-01-10T08:01:40;100878.72;;;4.45
65316;BMP280;51920;53.952;10.292;2023-01-10T08:04:05;100883.56;;;4.52
65316;BMP280;51920;53.952;10.292;2023-01-10T08:06:30;100867.34;;;4.49
65316;BMP280;51920;53.952;10.292;2023-01-10T08:08:56;100880.56;;;4.54
65316;BMP280;51920;53.952;10.292;2023-01-10T08:11:21;100883.44;;;4.49
65316;BMP280;51920;53.952;10.292;2023-01-10T08:13:47;100888.41;;;4.59
65316;BMP280;51920;53.952;10.292;2023-01-10T08:16:13;100892.88;;;4.55
65316;BMP280;51920;53.952;10.292;2023-01-10T08:18:39;100900.09;;;4.54
65316;BMP280;51920;53.952;10.292;2023-01-10T08:21:08;100903.59;;;4.55
65316;BMP280;51920;53.952;10.292;2023-01-10T08:23:33;100896.66;;;4.54
65316;BMP280;51920;53.952;10.292;2023-01-10T08:25:59;100906.72;;;4.57
65316;BMP280;51920;53.952;10.292;2023-01-10T08:28:25;100896.19;;;4.52
65316;BMP280;51920;53.952;10.292;2023-01-10T08:30:50;100908.38;;;4.61
65316;BMP280;51920;53.952;10.292;2023-01-10T08:33:23;100911.56;;;4.63
65316;BMP280;51920;53.952;10.292;2023-01-10T08:35:49;100907.88;;;4.68
65316;BMP280;51920;53.952;10.292;2023-01-10T08:38:14;100905.66;;;4.70
65316;BMP280;51920;53.952;10.292;2023-01-10T08:40:40;100915.19;;;4.80
65316;BMP280;51920;53.952;10.292;2023-01-10T08:43:08;100911.94;;;4.74
65316;BMP280;51920;53.952;10.292;2023-01-10T08:45:34;100925.13;;;4.79
65316;BMP280;51920;53.952;10.292;2023-01-10T08:48:00;100920.94;;;4.91
65316;BMP280;51920;53.952;10.292;2023-01-10T08:50:26;100933.75;;;5.06
65316;BMP280;51920;53.952;10.292;2023-01-10T08:52:51;100929.03;;;5.03
65316;BMP280;51920;53.952;10.292;2023-01-10T08:55:18;100930.41;;;5.21
65316;BMP280;51920;53.952;10.292;2023-01-10T08:57:43;100931.78;;;5.28
65316;BMP280;51920;53.952;10.292;2023-01-10T09:00:09;100931.97;;;5.22
65316;BMP280;51920;53.952;10.292;2023-01-10T09:02:38;100942.19;;;5.29
65316;BMP280;51920;53.952;10.292;2023-01-10T09:05:03;100945.66;;;5.66
65316;BMP280;51920;53.952;10.292;2023-01-10T09:07:29;100953.03;;;5.82
65316;BMP280;51920;53.952;10.292;2023-01-10T09:09:54;100967.53;;;5.90
65316;BMP280;51920;53.952;10.292;2023-01-10T09:12:19;100956.66;;;5.86
65316;BMP280;51920;53.952;10.292;2023-01-10T09:15:04;100957.88;;;5.76
65316;BMP280;51920;53.952;10.292;2023-01-10T09:17:31;100958.63;;;5.64
65316;BMP280;51920;53.952;10.292;2023-01-10T09:19:56;100949.81;;;5.64
65316;BMP280;51920;53.952;10.292;2023-01-10T09:22:22;100941.63;;;5.60
65316;BMP280;51920;53.952;10.292;2023-01-10T09:24:48;100944.97;;;5.70
65316;BMP280;51920;53.952;10.292;2023-01-10T09:27:13;100944.53;;;5.68
65316;BMP280;51920;53.952;10.292;2023-01-10T09:29:39;100935.81;;;5.71
65316;BMP280;51920;53.952;10.292;2023-01-10T09:32:04;100943.22;;;5.74
65316;BMP280;51920;53.952;10.292;2023-01-10T09:34:30;100940.72;;;5.81
65316;BMP280;51920;53.952;10.292;2023-01-10T09:36:55;100950.13;;;5.87
65316;BMP280;51920;53.952;10.292;2023-01-10T09:39:20;100946.34;;;5.88
65316;BMP280;51920;53.952;10.292;2023-01-10T09:42:14;100949.03;;;5.88
65316;BMP280;51920;53.952;10.292;2023-01-10T09:47:24;100955.75;;;5.94
65316;BMP280;51920;53.952;10.292;2023-01-10T09:50:01;100954.84;;;6.02
65316;BMP280;51920;53.952;10.292;2023-01-10T09:52:41;100966.25;;;5.99
65316;BMP280;51920;53.952;10.292;2023-01-10T09:55:25;100987.56;;;6.04
65316;BMP280;51920;53.952;10.292;2023-01-10T09:57:53;100994.41;;;6.02
65316;BMP280;51920;53.952;10.292;2023-01-10T10:00:34;100983.63;;;6.02
65316;BMP280;51920;53.952;10.292;2023-01-10T10:03:04;100987.44;;;6.01
65316;BMP280;51920;53.952;10.292;2023-01-10T10:05:36;101002.09;;;6.03
65316;BMP280;51920;53.952;10.292;2023-01-10T10:08:02;101010.16;;;6.16
65316;BMP280;51920;53.952;10.292;2023-01-10T10:16:20;101017.00;;;6.13
65316;BMP280;51920;53.952;10.292;2023-01-10T10:24:02;101007.25;;;6.21
65316;BMP280;51920;53.952;10.292;2023-01-10T10:26:35;101013.53;;;6.25
65316;BMP280;51920;53.952;10.292;2023-01-10T10:34:56;101001.75;;;6.30
65316;BMP280;51920;53.952;10.292;2023-01-10T10:37:26;101011.06;;;6.32
65316;BMP280;51920;53.952;10.292;2023-01-10T10:40:04;101012.38;;;6.38
65316;BMP280;51920;53.952;10.292;2023-01-10T10:42:40;101008.81;;;6.34
65316;BMP280;51920;53.952;10.292;2023-01-10T10:45:18;100990.97;;;6.30
65316;BMP280;51920;53.952;10.292;2023-01-10T10:47:49;100991.31;;;6.28
65316;BMP280;51920;53.952;10.292;2023-01-10T10:50:23;101013.06;;;6.35
65316;BMP280;51920;53.952;10.292;2023-01-10T10:52:51;100995.38;;;6.34
65316;BMP280;51920;53.952;10.292;2023-01-10T10:55:20;100983.78;;;6.34
65316;BMP280;51920;53.952;10.292;2023-01-10T10:57:48;101005.09;;;6.26
65316;BMP280;51920;53.952;10.292;2023-01-10T11:00:18;101018.00;;;6.33
65316;BMP280;51920;53.952;10.292;2023-01-10T11:02:52;101023.78;;;6.47
65316;BMP280;51920;53.952;10.292;2023-01-10T11:05:39;101028.94;;;6.40
65316;BMP280;51920;53.952;10.292;2023-01-10T11:08:08;101011.94;;;6.36
65316;BMP280;51920;53.952;10.292;2023-01-10T11:10:38;101024.72;;;6.39
65316;BMP280;51920;53.952;10.292;2023-01-10T11:13:26;101023.81;;;6.35
65316;BMP280;51920;53.952;10.292;2023-01-10T11:15:54;101014.09;;;6.31
65316;BMP280;51920;53.952;10.292;2023-01-10T11:18:23;101022.91;;;6.43
65316;BMP280;51920;53.952;10.292;2023-01-10T11:21:12;101024.84;;;6.31
65316;BMP280;51920;53.952;10.292;2023-01-10T11:23:48;101035.28;;;6.32
65316;BMP280;51920;53.952;10.292;2023-01-10T11:28:51;101035.28;;;6.32
65316;BMP280;51920;53.952;10.292;2023-01-10T11:31:27;101034.78;;;6.30
65316;BMP280;51920;53.952;10.292;2023-01-10T11:33:53;101040.97;;;6.31
65316;BMP280;51920;53.952;10.292;2023-01-10T11:36:19;101037.75;;;6.37
65316;BMP280;51920;53.952;10.292;2023-01-10T11:38:58;101044.66;;;6.38
65316;BMP280;51920;53.952;10.292;2023-01-10T11:41:25;101041.84;;;6.47
65316;BMP280;51920;53.952;10.292;2023-01-10T11:44:26;101046.47;;;6.46
65316;BMP280;51920;53.952;10.292;2023-01-10T11:47:01;101050.25;;;6.45
65316;BMP280;51920;53.952;10.292;2023-01-10T11:49:39;101042.63;;;6.47
65316;BMP280;51920;53.952;10.292;2023-01-10T11:52:26;101047.44;;;6.54
65316;BMP280;51920;53.952;10.292;2023-01-10T11:54:53;101039.34;;;6.54
65316;BMP280;51920;53.952;10.292;2023-01-10T11:57:25;101034.66;;;6.51
65316;BMP280;51920;53.952;10.292;2023-01-10T12:02:26;101029.47;;;6.58
65316;BMP280;51920;53.952;10.292;2023-01-10T12:04:54;101030.63;;;6.57
65316;BMP280;51920;53.952;10.292;2023-01-10T12:07:20;101031.84;;;6.60
65316;BMP280;51920;53.952;10.292;2023-01-10T12:09:59;101029.78;;;6.69
65316;BMP280;51920;53.952;10.292;2023-01-10T12:12:33;101029.78;;;6.69
65316;BMP280;51920;53.952;10.292;2023-01-10T12:15:29;101029.78;;;6.69
65316;BMP280;51920;53.952;10.292;2023-01-10T12:17:56;101032.47;;;6.69
65316;BMP280;51920;53.952;10.292;2023-01-10T12:20:25;101027.78;;;6.66
65316;BMP280;51920;53.952;10.292;2023-01-10T12:22:57;101024.75;;;6.68
65316;BMP280;51920;53.952;10.292;2023-01-10T12:25:32;101032.69;;;6.76
65316;BMP280;51920;53.952;10.292;2023-01-10T12:27:59;101024.75;;;6.68
65316;BMP280;51920;53.952;10.292;2023-01-10T12:30:31;101027.66;;;6.75
65316;BMP280;51920;53.952;10.292;2023-01-10T12:33:01;101038.19;;;6.80
65316;BMP280;51920;53.952;10.292;2023-01-10T12:35:37;101046.00;;;6.85
65316;BMP280;51920;53.952;10.292;2023-01-10T12:39:01;101046.00;;;6.85
65316;BMP280;51920;53.952;10.292;2023-01-10T12:41:54;101041.41;;;6.85
65316;BMP280;51920;53.952;10.292;2023-01-10T12:44:42;101039.72;;;6.81
65316;BMP280;51920;53.952;10.292;2023-01-10T12:49:57;101045.88;;;6.81
65316;BMP280;51920;53.952;10.292;2023-01-10T12:55:22;101038.06;;;6.76
65316;BMP280;51920;53.952;10.292;2023-01-10T12:58:00;101033.88;;;6.91
65316;BMP280;51920;53.952;10.292;2023-01-10T13:00:35;101037.69;;;6.90
65316;BMP280;51920;53.952;10.292;2023-01-10T13:03:04;101046.19;;;6.92
65316;BMP280;51920;53.952;10.292;2023-01-10T13:05:33;101031.88;;;6.88
65316;BMP280;51920;53.952;10.292;2023-01-10T13:08:02;101038.56;;;6.94
65316;BMP280;51920;53.952;10.292;2023-01-10T13:10:29;101033.19;;;6.94
65316;BMP280;51920;53.952;10.292;2023-01-10T13:13:08;101030.59;;;6.98
65316;BMP280;51920;53.952;10.292;2023-01-10T13:15:41;101036.00;;;6.98
65316;BMP280;51920;53.952;10.292;2023-01-10T13:18:16;101040.19;;;7.11
65316;BMP280;51920;53.952;10.292;2023-01-10T13:20:42;101024.84;;;6.99
65316;BMP280;51920;53.952;10.292;2023-01-10T13:23:18;101038.16;;;7.08
65316;BMP280;51920;53.952;10.292;2023-01-10T13:25:54;101030.72;;;7.17
65316;BMP280;51920;53.952;10.292;2023-01-10T13:28:22;101034.34;;;7.09
65316;BMP280;51920;53.952;10.292;2023-01-10T13:31:03;101025.84;;;7.07
65316;BMP280;51920;53.952;10.292;2023-01-10T13:33:32;101036.38;;;7.12
65316;BMP280;51920;53.952;10.292;2023-01-10T13:36:09;101034.25;;;7.05
65316;BMP280;51920;53.952;10.292;2023-01-10T13:38:50;101035.47;;;7.08
65316;BMP280;51920;53.952;10.292;2023-01-10T13:41:17;101038.63;;;7.10
65316;BMP280;51920;53.952;10.292;2023-01-10T13:46:35;101042.88;;;7.11
65316;BMP280;51920;53.952;10.292;2023-01-10T13:51:29;101049.13;;;7.15
65316;BMP280;51920;53.952;10.292;2023-01-10T13:56:44;101035.06;;;7.22
65316;BMP280;51920;53.952;10.292;2023-01-10T13:59:13;101037.00;;;7.21
65316;BMP280;51920;53.952;10.292;2023-01-10T14:02:24;101025.69;;;7.16
65316;BMP280;51920;53.952;10.292;2023-01-10T14:04:56;101033.41;;;7.17
65316;BMP280;51920;53.952;10.292;2023-01-10T14:07:31;101038.91;;;7.21
65316;BMP280;51920;53.952;10.292;2023-01-10T14:10:20;101037.00;;;7.21
65316;BMP280;51920;53.952;10.292;2023-01-10T14:12:51;101034.19;;;7.18
65316;BMP280;51920;53.952;10.292;2023-01-10T14:15:23;101030.50;;;7.22
65316;BMP280;51920;53.952;10.292;2023-01-10T14:18:03;101028.81;;;7.18
65316;BMP280;51920;53.952;10.292;2023-01-10T14:20:31;101034.19;;;7.18
65316;BMP280;51920;53.952;10.292;2023-01-10T14:23:16;101029.84;;;7.13
65316;BMP280;51920;53.952;10.292;2023-01-10T14:25:43;101040.78;;;7.20
65316;BMP280;51920;53.952;10.292;2023-01-10T14:28:19;101033.69;;;7.12
65316;BMP280;51920;53.952;10.292;2023-01-10T14:31:02;101030.38;;;7.03
65316;BMP280;51920;53.952;10.292;2023-01-10T14:33:29;101028.63;;;7.11
65316;BMP280;51920;53.952;10.292;2023-01-10T14:35:58;101035.03;;;7.06
65316;BMP280;51920;53.952;10.292;2023-01-10T14:38:28;101032.00;;;7.07
65316;BMP280;51920;53.952;10.292;2023-01-10T14:40:59;101027.28;;;7.04
65316;BMP280;51920;53.952;10.292;2023-01-10T14:43:31;101029.31;;;7.07
65316;BMP280;51920;53.952;10.292;2023-01-10T14:46:02;101019.59;;;7.03
65316;BMP280;51920;53.952;10.292;2023-01-10T14:48:34;101014.06;;;6.99
65316;BMP280;51920;53.952;10.292;2023-01-10T14:51:06;101018.63;;;7.11
65316;BMP280;51920;53.952;10.292;2023-01-10T14:53:38;101012.28;;;7.03
65316;BMP280;51920;53.952;10.292;2023-01-10T14:56:16;101014.22;;;7.03
65316;BMP280;51920;53.952;10.292;2023-01-10T14:58:42;101011.75;;;6.98
65316;BMP280;51920;53.952;10.292;2023-01-10T15:01:08;101008.88;;;6.91
65316;BMP280;51920;53.952;10.292;2023-01-10T15:03:34;101004.00;;;6.96
65316;BMP280;51920;53.952;10.292;2023-01-10T15:06:00;100992.31;;;6.92
65316;BMP280;51920;53.952;10.292;2023-01-10T15:08:28;101010.34;;;7.04
65316;BMP280;51920;53.952;10.292;2023-01-10T15:10:59;101004.78;;;6.97
65316;BMP280;51920;53.952;10.292;2023-01-10T15:13:27;100996.81;;;7.00